sensor_id;sensor_type;location;lat;lon;timestamp;P1;durP1;ratioP1;P2;durP2;ratioP2
5702;SDS011;2876;51.738;10.050;2022-09-13T00:03:23;6.07;;;3.63;;
5702;SDS011;2876;51.738;10.050;2022-09-13T00:09:26;5.33;;;3.30;;
5702;SDS011;2876;51.738;10.050;2022-09-13T00:15:28;8.30;;;3.83;;
5702;SDS011;2876;51.738;10.050;2022-09-13T00:21:30;3.47;;;3.10;;
5702;SDS011;2876;51.738;10.050;2022-09-13T00:27:33;4.73;;;3.73;;
5702;SDS011;2876;51.738;10.050;2022-09-13T00:33:37;7.80;;;4.47;;
5702;SDS011;2876;51.738;10.050;2022-09-13T00:39:39;3.40;;;3.10;;
5702;SDS011;2876;51.738;10.050;2022-09-13T00:45:41;4.60;;;3.80;;
5702;SDS011;2876;51.738;10.050;2022-09-13T00:51:44;4.80;;;3.80;;
5702;SDS011;2876;51.738;10.050;2022-09-13T00:57:59;6.50;;;3.80;;
5702;SDS011;2876;51.738;10.050;2022-09-13T01:04:07;4.70;;;3.10;;
5702;SDS011;2876;51.738;10.050;2022-09-13T01:10:13;3.87;;;3.07;;
5702;SDS011;2876;51.738;10.050;2022-09-13T01:16:15;10.30;;;4.10;;
5702;SDS011;2876;51.738;10.050;2022-09-13T01:36:20;4.60;;;4.03;;
5702;SDS011;2876;51.738;10.050;2022-09-13T01:49:46;6.60;;;3.90;;
5702;SDS011;2876;51.738;10.050;2022-09-13T01:56:21;6.50;;;3.57;;
5702;SDS011;2876;51.738;10.050;2022-09-13T02:08:54;5.20;;;3.80;;
5702;SDS011;2876;51.738;10.050;2022-09-13T02:15:12;4.90;;;3.90;;
5702;SDS011;2876;51.738;10.050;2022-09-13T02:21:21;5.13;;;3.13;;
5702;SDS011;2876;51.738;10.050;2022-09-13T02:27:31;6.07;;;4.00;;
5702;SDS011;2876;51.738;10.050;2022-09-13T02:33:36;5.00;;;3.90;;
5702;SDS011;2876;51.738;10.050;2022-09-13T02:39:46;5.40;;;3.77;;
5702;SDS011;2876;51.738;10.050;2022-09-13T02:59:04;4.20;;;3.80;;
5702;SDS011;2876;51.738;10.050;2022-09-13T03:05:18;4.80;;;3.90;;
5702;SDS011;2876;51.738;10.050;2022-09-13T03:30:11;4.10;;;3.50;;
5702;SDS011;2876;51.738;10.050;2022-09-13T03:36:18;4.00;;;3.60;;
5702;SDS011;2876;51.738;10.050;2022-09-13T03:42:34;10.93;;;4.67;;
5702;SDS011;2876;51.738;10.050;2022-09-13T03:49:10;8.63;;;4.50;;
5702;SDS011;2876;51.738;10.050;2022-09-13T03:55:19;4.73;;;4.23;;
5702;SDS011;2876;51.738;10.050;2022-09-13T04:01:22;9.27;;;4.20;;
5702;SDS011;2876;51.738;10.050;2022-09-13T04:07:25;7.10;;;4.27;;
5702;SDS011;2876;51.738;10.050;2022-09-13T04:13:27;4.70;;;4.17;;
5702;SDS011;2876;51.738;10.050;2022-09-13T04:19:29;13.23;;;4.30;;
5702;SDS011;2876;51.738;10.050;2022-09-13T04:25:37;6.60;;;4.43;;
5702;SDS011;2876;51.738;10.050;2022-09-13T04:31:40;4.40;;;4.00;;
5702;SDS011;2876;51.738;10.050;2022-09-13T04:37:42;10.93;;;5.03;;
5702;SDS011;2876;51.738;10.050;2022-09-13T04:43:48;8.67;;;5.27;;
5702;SDS011;2876;51.738;10.050;2022-09-13T04:49:50;10.50;;;5.07;;
5702;SDS011;2876;51.738;10.050;2022-09-13T04:55:52;5.97;;;5.07;;
5702;SDS011;2876;51.738;10.050;2022-09-13T05:02:03;8.60;;;4.93;;
5702;SDS011;2876;51.738;10.050;2022-09-13T05:08:05;5.33;;;4.83;;
5702;SDS011;2876;51.738;10.050;2022-09-13T05:14:10;6.57;;;5.00;;
5702;SDS011;2876;51.738;10.050;2022-09-13T05:20:12;6.30;;;5.30;;
5702;SDS011;2876;51.738;10.050;2022-09-13T05:26:14;9.87;;;5.50;;
5702;SDS011;2876;51.738;10.050;2022-09-13T05:32:19;5.60;;;4.70;;
5702;SDS011;2876;51.738;10.050;2022-09-13T05:38:21;5.63;;;5.03;;
5702;SDS011;2876;51.738;10.050;2022-09-13T05:44:24;7.40;;;5.27;;
5702;SDS011;2876;51.738;10.050;2022-09-13T05:50:26;4.93;;;4.30;;
5702;SDS011;2876;51.738;10.050;2022-09-13T05:56:48;5.87;;;4.80;;
5702;SDS011;2876;51.738;10.050;2022-09-13T06:02:52;5.93;;;5.33;;
5702;SDS011;2876;51.738;10.050;2022-09-13T06:08:56;6.80;;;5.77;;
5702;SDS011;2876;51.738;10.050;2022-09-13T06:14:58;8.00;;;6.10;;
5702;SDS011;2876;51.738;10.050;2022-09-13T06:21:07;7.93;;;5.70;;
5702;SDS011;2876;51.738;10.050;2022-09-13T06:27:12;6.00;;;5.10;;
5702;SDS011;2876;51.738;10.050;2022-09-13T06:33:14;5.23;;;4.73;;
5702;SDS011;2876;51.738;10.050;2022-09-13T06:39:15;5.77;;;5.13;;
5702;SDS011;2876;51.738;10.050;2022-09-13T06:45:17;6.70;;;4.63;;
5702;SDS011;2876;51.738;10.050;2022-09-13T06:51:23;10.30;;;5.73;;
5702;SDS011;2876;51.738;10.050;2022-09-13T06:57:28;7.07;;;4.70;;
5702;SDS011;2876;51.738;10.050;2022-09-13T07:03:30;7.00;;;5.20;;
5702;SDS011;2876;51.738;10.050;2022-09-13T07:09:32;6.13;;;4.87;;
5702;SDS011;2876;51.738;10.050;2022-09-13T07:15:35;5.90;;;5.30;;
5702;SDS011;2876;51.738;10.050;2022-09-13T07:21:37;10.30;;;5.83;;
5702;SDS011;2876;51.738;10.050;2022-09-13T07:27:39;6.43;;;5.00;;
5702;SDS011;2876;51.738;10.050;2022-09-13T07:33:42;5.63;;;4.43;;
5702;SDS011;2876;51.738;10.050;2022-09-13T07:39:45;9.70;;;4.70;;
5702;SDS011;2876;51.738;10.050;2022-09-13T07:45:47;15.50;;;5.50;;
5702;SDS011;2876;51.738;10.050;2022-09-13T07:51:57;7.33;;;5.53;;
5702;SDS011;2876;51.738;10.050;2022-09-13T07:57:59;9.00;;;4.70;;
5702;SDS011;2876;51.738;10.050;2022-09-13T08:04:03;7.40;;;5.20;;
5702;SDS011;2876;51.738;10.050;2022-09-13T08:10:08;14.33;;;4.57;;
5702;SDS011;2876;51.738;10.050;2022-09-13T08:16:10;6.60;;;4.60;;
5702;SDS011;2876;51.738;10.050;2022-09-13T08:22:12;6.03;;;5.00;;
5702;SDS011;2876;51.738;10.050;2022-09-13T08:28:15;6.10;;;4.70;;
5702;SDS011;2876;51.738;10.050;2022-09-13T08:34:27;9.97;;;4.80;;
5702;SDS011;2876;51.738;10.050;2022-09-13T08:40:30;5.00;;;4.40;;
5702;SDS011;2876;51.738;10.050;2022-09-13T08:46:46;5.07;;;4.60;;
5702;SDS011;2876;51.738;10.050;2022-09-13T08:59:28;5.20;;;4.70;;
5702;SDS011;2876;51.738;10.050;2022-09-13T09:05:53;6.10;;;4.47;;
5702;SDS011;2876;51.738;10.050;2022-09-13T09:11:58;4.57;;;4.17;;
5702;SDS011;2876;51.738;10.050;2022-09-13T09:18:34;6.50;;;4.13;;
5702;SDS011;2876;51.738;10.050;2022-09-13T09:24:44;10.03;;;3.73;;
5702;SDS011;2876;51.738;10.050;2022-09-13T09:37:27;4.13;;;3.73;;
5702;SDS011;2876;51.738;10.050;2022-09-13T09:43:31;7.07;;;3.87;;
5702;SDS011;2876;51.738;10.050;2022-09-13T09:49:53;5.33;;;4.13;;
5702;SDS011;2876;51.738;10.050;2022-09-13T09:56:18;4.17;;;3.77;;
5702;SDS011;2876;51.738;10.050;2022-09-13T10:02:26;7.73;;;3.90;;
5702;SDS011;2876;51.738;10.050;2022-09-13T10:08:29;4.53;;;2.83;;
5702;SDS011;2876;51.738;10.050;2022-09-13T10:14:37;4.43;;;3.30;;
5702;SDS011;2876;51.738;10.050;2022-09-13T10:27:03;5.03;;;3.07;;
5702;SDS011;2876;51.738;10.050;2022-09-13T10:39:31;4.53;;;3.60;;
5702;SDS011;2876;51.738;10.050;2022-09-13T10:45:36;4.13;;;3.70;;
5702;SDS011;2876;51.738;10.050;2022-09-13T10:51:38;7.60;;;3.83;;
5702;SDS011;2876;51.738;10.050;2022-09-13T10:57:41;4.40;;;3.50;;
5702;SDS011;2876;51.738;10.050;2022-09-13T11:42:38;4.93;;;2.43;;
5702;SDS011;2876;51.738;10.050;2022-09-13T12:01:33;4.47;;;3.37;;
5702;SDS011;2876;51.738;10.050;2022-09-13T12:07:48;4.67;;;3.10;;
5702;SDS011;2876;51.738;10.050;2022-09-13T12:14:28;3.40;;;3.00;;
5702;SDS011;2876;51.738;10.050;2022-09-13T12:20:51;5.47;;;2.90;;
5702;SDS011;2876;51.738;10.050;2022-09-13T12:33:23;6.67;;;3.17;;
5702;SDS011;2876;51.738;10.050;2022-09-13T12:52:35;6.93;;;3.97;;
5702;SDS011;2876;51.738;10.050;2022-09-13T13:06:05;4.50;;;3.27;;
5702;SDS011;2876;51.738;10.050;2022-09-13T13:18:46;4.13;;;3.20;;
5702;SDS011;2876;51.738;10.050;2022-09-13T13:24:52;4.67;;;3.63;;
5702;SDS011;2876;51.738;10.050;2022-09-13T13:30:55;5.63;;;3.70;;
5702;SDS011;2876;51.738;10.050;2022-09-13T13:37:00;5.07;;;3.93;;
5702;SDS011;2876;51.738;10.050;2022-09-13T13:43:30;6.83;;;4.50;;
5702;SDS011;2876;51.738;10.050;2022-09-13T13:49:40;7.97;;;4.07;;
5702;SDS011;2876;51.738;10.050;2022-09-13T13:56:19;7.80;;;4.57;;
5702;SDS011;2876;51.738;10.050;2022-09-13T14:15:40;10.37;;;5.70;;
5702;SDS011;2876;51.738;10.050;2022-09-13T14:28:16;9.13;;;5.20;;
5702;SDS011;2876;51.738;10.050;2022-09-13T14:34:35;7.10;;;4.10;;
5702;SDS011;2876;51.738;10.050;2022-09-13T14:40:39;5.00;;;4.23;;
5702;SDS011;2876;51.738;10.050;2022-09-13T14:46:42;5.87;;;5.00;;
5702;SDS011;2876;51.738;10.050;2022-09-13T14:53:04;10.37;;;3.90;;
5702;SDS011;2876;51.738;10.050;2022-09-13T14:59:17;7.53;;;4.60;;
5702;SDS011;2876;51.738;10.050;2022-09-13T15:05:46;9.50;;;4.30;;
5702;SDS011;2876;51.738;10.050;2022-09-13T15:11:59;4.10;;;3.53;;
5702;SDS011;2876;51.738;10.050;2022-09-13T15:18:22;3.90;;;3.50;;
5702;SDS011;2876;51.738;10.050;2022-09-13T15:24:36;7.73;;;4.63;;
5702;SDS011;2876;51.738;10.050;2022-09-13T15:30:48;6.03;;;3.90;;
5702;SDS011;2876;51.738;10.050;2022-09-13T15:43:11;6.17;;;3.20;;
5702;SDS011;2876;51.738;10.050;2022-09-13T15:49:15;7.83;;;3.60;;
5702;SDS011;2876;51.738;10.050;2022-09-13T15:55:23;4.83;;;3.30;;
5702;SDS011;2876;51.738;10.050;2022-09-13T16:01:27;5.90;;;3.20;;
5702;SDS011;2876;51.738;10.050;2022-09-13T16:07:29;4.90;;;4.07;;
5702;SDS011;2876;51.738;10.050;2022-09-13T16:13:31;7.17;;;3.77;;
5702;SDS011;2876;51.738;10.050;2022-09-13T16:19:34;5.13;;;3.60;;
5702;SDS011;2876;51.738;10.050;2022-09-13T16:25:36;3.90;;;3.37;;
5702;SDS011;2876;51.738;10.050;2022-09-13T16:31:38;5.60;;;4.20;;
5702;SDS011;2876;51.738;10.050;2022-09-13T16:37:41;8.23;;;3.53;;
5702;SDS011;2876;51.738;10.050;2022-09-13T16:43:44;5.67;;;4.03;;
5702;SDS011;2876;51.738;10.050;2022-09-13T16:49:46;6.40;;;3.53;;
5702;SDS011;2876;51.738;10.050;2022-09-13T16:55:48;5.00;;;4.07;;
5702;SDS011;2876;51.738;10.050;2022-09-13T17:01:50;7.10;;;3.80;;
5702;SDS011;2876;51.738;10.050;2022-09-13T17:07:53;6.13;;;3.93;;
5702;SDS011;2876;51.738;10.050;2022-09-13T17:13:54;5.67;;;4.20;;
5702;SDS011;2876;51.738;10.050;2022-09-13T17:19:57;4.53;;;4.00;;
5702;SDS011;2876;51.738;10.050;2022-09-13T17:25:59;4.50;;;4.10;;
5702;SDS011;2876;51.738;10.050;2022-09-13T17:32:02;4.10;;;3.70;;
5702;SDS011;2876;51.738;10.050;2022-09-13T17:38:06;5.43;;;4.00;;
5702;SDS011;2876;51.738;10.050;2022-09-13T17:44:07;7.23;;;4.73;;
5702;SDS011;2876;51.738;10.050;2022-09-13T17:50:12;5.47;;;4.97;;
5702;SDS011;2876;51.738;10.050;2022-09-13T17:56:15;8.60;;;5.00;;
5702;SDS011;2876;51.738;10.050;2022-09-13T18:02:20;5.93;;;4.60;;
5702;SDS011;2876;51.738;10.050;2022-09-13T18:08:23;9.10;;;5.67;;
5702;SDS011;2876;51.738;10.050;2022-09-13T18:14:29;6.60;;;5.30;;
5702;SDS011;2876;51.738;10.050;2022-09-13T18:20:32;5.83;;;5.20;;
5702;SDS011;2876;51.738;10.050;2022-09-13T18:26:40;8.00;;;5.10;;
5702;SDS011;2876;51.738;10.050;2022-09-13T18:32:42;5.83;;;4.50;;
5702;SDS011;2876;51.738;10.050;2022-09-13T18:38:48;5.60;;;5.00;;
5702;SDS011;2876;51.738;10.050;2022-09-13T18:44:50;6.67;;;4.40;;
5702;SDS011;2876;51.738;10.050;2022-09-13T18:50:52;5.67;;;4.63;;
5702;SDS011;2876;51.738;10.050;2022-09-13T18:56:54;5.87;;;4.70;;
5702;SDS011;2876;51.738;10.050;2022-09-13T19:02:57;5.23;;;4.73;;
5702;SDS011;2876;51.738;10.050;2022-09-13T19:09:12;5.30;;;4.80;;
5702;SDS011;2876;51.738;10.050;2022-09-13T19:15:15;6.53;;;4.50;;
5702;SDS011;2876;51.738;10.050;2022-09-13T19:21:18;4.47;;;4.07;;
5702;SDS011;2876;51.738;10.050;2022-09-13T19:27:23;8.30;;;4.63;;
5702;SDS011;2876;51.738;10.050;2022-09-13T19:33:24;5.40;;;4.87;;
5702;SDS011;2876;51.738;10.050;2022-09-13T19:39:26;7.40;;;5.87;;
5702;SDS011;2876;51.738;10.050;2022-09-13T19:45:30;5.73;;;5.13;;
5702;SDS011;2876;51.738;10.050;2022-09-13T19:51:33;7.13;;;5.23;;
5702;SDS011;2876;51.738;10.050;2022-09-13T19:57:38;10.97;;;5.70;;
5702;SDS011;2876;51.738;10.050;2022-09-13T20:03:52;6.87;;;6.17;;
5702;SDS011;2876;51.738;10.050;2022-09-13T20:09:59;6.70;;;5.60;;
5702;SDS011;2876;51.738;10.050;2022-09-13T20:16:02;8.50;;;6.17;;
5702;SDS011;2876;51.738;10.050;2022-09-13T20:22:21;9.40;;;6.63;;
5702;SDS011;2876;51.738;10.050;2022-09-13T20:28:23;7.87;;;6.50;;
5702;SDS011;2876;51.738;10.050;2022-09-13T20:34:26;9.33;;;7.00;;
5702;SDS011;2876;51.738;10.050;2022-09-13T20:40:28;9.43;;;6.97;;
5702;SDS011;2876;51.738;10.050;2022-09-13T20:46:30;10.83;;;8.03;;
5702;SDS011;2876;51.738;10.050;2022-09-13T20:52:32;11.30;;;7.23;;
5702;SDS011;2876;51.738;10.050;2022-09-13T20:58:35;9.03;;;7.30;;
5702;SDS011;2876;51.738;10.050;2022-09-13T21:04:38;7.73;;;7.00;;
5702;SDS011;2876;51.738;10.050;2022-09-13T21:10:40;7.20;;;6.30;;
5702;SDS011;2876;51.738;10.050;2022-09-13T21:16:42;9.20;;;6.47;;
5702;SDS011;2876;51.738;10.050;2022-09-13T21:22:44;8.77;;;7.03;;
5702;SDS011;2876;51.738;10.050;2022-09-13T21:28:47;12.10;;;8.10;;
5702;SDS011;2876;51.738;10.050;2022-09-13T21:34:50;9.27;;;7.20;;
5702;SDS011;2876;51.738;10.050;2022-09-13T21:40:56;8.23;;;7.43;;
5702;SDS011;2876;51.738;10.050;2022-09-13T21:47:01;9.07;;;7.37;;
5702;SDS011;2876;51.738;10.050;2022-09-13T21:53:03;10.93;;;8.07;;
5702;SDS011;2876;51.738;10.050;2022-09-13T21:59:06;10.70;;;8.73;;
5702;SDS011;2876;51.738;10.050;2022-09-13T22:05:15;8.93;;;8.13;;
5702;SDS011;2876;51.738;10.050;2022-09-13T22:11:17;4.80;;;3.83;;
5702;SDS011;2876;51.738;10.050;2022-09-13T22:17:23;8.63;;;3.50;;
5702;SDS011;2876;51.738;10.050;2022-09-13T22:23:25;5.80;;;4.37;;
5702;SDS011;2876;51.738;10.050;2022-09-13T22:29:28;5.27;;;4.23;;
5702;SDS011;2876;51.738;10.050;2022-09-13T22:35:30;9.93;;;5.07;;
5702;SDS011;2876;51.738;10.050;2022-09-13T22:41:32;7.47;;;6.00;;
5702;SDS011;2876;51.738;10.050;2022-09-13T22:47:35;5.30;;;4.80;;
5702;SDS011;2876;51.738;10.050;2022-09-13T22:53:38;4.37;;;3.90;;
5702;SDS011;2876;51.738;10.050;2022-09-13T22:59:42;4.80;;;2.30;;
5702;SDS011;2876;51.738;10.050;2022-09-13T23:05:50;6.57;;;2.60;;
5702;SDS011;2876;51.738;10.050;2022-09-13T23:11:52;3.77;;;2.30;;
5702;SDS011;2876;51.738;10.050;2022-09-13T23:17:54;4.17;;;2.10;;
5702;SDS011;2876;51.738;10.050;2022-09-13T23:23:57;10.70;;;2.43;;
5702;SDS011;2876;51.738;10.050;2022-09-13T23:30:01;4.10;;;1.83;;
5702;SDS011;2876;51.738;10.050;2022-09-13T23:36:02;7.20;;;2.00;;
5702;SDS011;2876;51.738;10.050;2022-09-13T23:42:05;2.53;;;1.60;;
5702;SDS011;2876;51.738;10.050;2022-09-13T23:48:07;6.60;;;1.97;;
5702;SDS011;2876;51.738;10.050;2022-09-13T23:54:09;11.30;;;2.70;;
